createdAt,value
2022-09-20T00:00:26.372Z,2.80
2022-09-20T00:03:27.770Z,2.60
2022-09-20T00:06:31.451Z,2.55
2022-09-20T00:09:32.861Z,2.10
2022-09-20T00:12:34.284Z,2.47
2022-09-20T00:15:41.267Z,2.78
2022-09-20T00:18:42.873Z,2.47
2022-09-20T00:21:44.327Z,3.00
2022-09-20T00:24:48.983Z,2.60
2022-09-20T00:27:50.608Z,3.13
2022-09-20T00:30:53.756Z,2.78
2022-09-20T00:33:56.808Z,3.08
2022-09-20T00:36:58.207Z,3.15
2022-09-20T00:39:59.623Z,2.60
2022-09-20T00:43:01.056Z,2.83
2022-09-20T00:46:03.891Z,2.42
2022-09-20T00:49:16.360Z,2.70
2022-09-20T00:52:18.290Z,2.70
2022-09-20T00:55:20.225Z,2.58
2022-09-20T00:58:24.839Z,2.20
2022-09-20T01:01:26.372Z,2.50
2022-09-20T01:04:29.023Z,2.38
2022-09-20T01:07:30.578Z,2.58
2022-09-20T01:10:32.418Z,2.55
2022-09-20T01:13:33.832Z,2.47
2022-09-20T01:16:37.327Z,2.63
2022-09-20T01:20:01.519Z,2.53
2022-09-20T01:23:28.306Z,2.80
2022-09-20T01:26:48.521Z,2.60
2022-09-20T01:30:11.908Z,2.60
2022-09-20T01:33:32.561Z,2.92
2022-09-20T01:36:54.769Z,2.90
2022-09-20T01:40:11.277Z,2.33
2022-09-20T01:43:24.841Z,2.40
2022-09-20T01:46:34.410Z,2.67
2022-09-20T01:49:52.644Z,2.65
2022-09-20T01:53:27.311Z,3.03
2022-09-20T01:56:47.078Z,2.60
2022-09-20T01:59:54.573Z,2.60
2022-09-20T02:03:17.678Z,2.72
2022-09-20T02:06:47.628Z,2.40
2022-09-20T02:10:01.908Z,2.47
2022-09-20T02:13:11.151Z,2.85
2022-09-20T02:16:27.812Z,2.90
2022-09-20T02:19:46.591Z,2.88
2022-09-20T02:23:05.561Z,2.90
2022-09-20T02:26:22.744Z,2.70
2022-09-20T02:29:51.393Z,3.17
2022-09-20T02:33:23.114Z,2.97
2022-09-20T02:37:01.785Z,2.85
2022-09-20T02:40:42.513Z,3.22
2022-09-20T02:43:51.359Z,2.80
2022-09-20T02:47:30.112Z,3.00
2022-09-20T02:51:02.492Z,3.20
2022-09-20T02:54:35.333Z,3.53
2022-09-20T02:58:04.511Z,3.83
2022-09-20T03:01:35.020Z,3.00
2022-09-20T03:04:51.297Z,2.88
2022-09-20T03:08:24.806Z,2.78
2022-09-20T03:11:37.962Z,2.90
2022-09-20T03:15:02.755Z,3.15
2022-09-20T03:21:28.184Z,3.15
2022-09-20T03:24:57.037Z,3.28
2022-09-20T03:28:38.416Z,3.05
2022-09-20T03:31:53.758Z,4.00
2022-09-20T03:35:24.493Z,3.88
2022-09-20T03:38:28.550Z,3.28
2022-09-20T03:42:07.430Z,2.90
2022-09-20T03:45:39.289Z,3.20
2022-09-20T03:49:25.666Z,3.30
2022-09-20T03:52:33.538Z,3.60
2022-09-20T03:56:12.597Z,3.45
2022-09-20T03:59:42.159Z,3.53
2022-09-20T04:02:46.609Z,4.45
2022-09-20T04:05:48.015Z,4.07
2022-09-20T04:09:04.714Z,4.38
2022-09-20T04:12:12.014Z,3.85
2022-09-20T04:15:41.562Z,4.05
2022-09-20T04:19:01.515Z,3.92
2022-09-20T04:22:03.545Z,3.63
2022-09-20T04:25:36.087Z,4.03
2022-09-20T04:28:51.704Z,3.83
2022-09-20T04:32:19.492Z,3.72
2022-09-20T04:35:32.837Z,3.85
2022-09-20T04:38:34.762Z,3.72
2022-09-20T04:42:10.343Z,3.97
2022-09-20T04:45:35.295Z,4.25
2022-09-20T04:49:09.083Z,4.25
2022-09-20T04:52:35.023Z,4.50
2022-09-20T04:55:55.719Z,3.90
2022-09-20T04:59:10.259Z,3.85
2022-09-20T05:05:56.330Z,4.00
2022-09-20T05:09:25.875Z,3.95
2022-09-20T05:12:45.468Z,4.07
2022-09-20T05:16:21.617Z,3.90
2022-09-20T05:19:43.305Z,3.60
2022-09-20T05:22:59.877Z,4.35
2022-09-20T05:26:12.677Z,4.50
2022-09-20T05:29:17.549Z,4.07
2022-09-20T05:32:41.616Z,3.72
2022-09-20T05:36:10.742Z,3.78
2022-09-20T05:39:24.883Z,3.47
2022-09-20T05:42:48.119Z,3.83
2022-09-20T05:46:10.748Z,3.58
2022-09-20T05:49:31.127Z,3.30
2022-09-20T05:52:54.278Z,3.05
2022-09-20T05:56:14.429Z,3.70
2022-09-20T05:59:29.471Z,3.70
2022-09-20T06:02:44.660Z,3.60
2022-09-20T06:06:13.957Z,3.83
2022-09-20T06:09:29.714Z,3.65
2022-09-20T06:12:46.885Z,3.80
2022-09-20T06:15:58.456Z,3.30
2022-09-20T06:19:18.142Z,3.28
2022-09-20T06:22:24.683Z,3.83
2022-09-20T06:25:38.719Z,3.20
2022-09-20T06:28:46.053Z,3.40
2022-09-20T06:31:47.459Z,2.75
2022-09-20T06:34:49.917Z,2.85
2022-09-20T06:38:00.862Z,2.72
2022-09-20T06:41:03.771Z,2.65
2022-09-20T06:44:05.323Z,2.40
2022-09-20T06:47:10.407Z,2.35
2022-09-20T06:50:15.846Z,1.92
2022-09-20T06:53:20.975Z,1.73
2022-09-20T06:56:26.452Z,1.50
2022-09-20T06:59:27.921Z,1.60
2022-09-20T07:02:29.362Z,1.60
2022-09-20T07:05:30.823Z,1.25
2022-09-20T07:08:32.358Z,1.50
2022-09-20T07:11:33.801Z,1.02
2022-09-20T07:14:35.200Z,1.05
2022-09-20T07:17:36.602Z,1.27
2022-09-20T07:20:38.037Z,1.42
2022-09-20T07:23:39.568Z,1.30
2022-09-20T07:26:54.750Z,1.38
2022-09-20T07:29:56.152Z,1.25
2022-09-20T07:32:57.545Z,1.33
2022-09-20T07:35:58.975Z,1.60
2022-09-20T07:39:00.392Z,1.48
2022-09-20T07:42:01.808Z,1.08
2022-09-20T07:45:03.598Z,1.27
2022-09-20T07:48:08.048Z,1.30
2022-09-20T07:51:12.007Z,1.17
2022-09-20T07:54:13.466Z,1.50
2022-09-20T07:57:14.872Z,1.50
2022-09-20T08:00:16.592Z,1.40
2022-09-20T08:03:18.049Z,1.42
2022-09-20T08:06:19.512Z,1.40
2022-09-20T08:09:20.995Z,1.30
2022-09-20T08:15:43.834Z,1.85
2022-09-20T08:18:52.791Z,1.63
2022-09-20T08:21:54.731Z,1.35
2022-09-20T08:24:56.131Z,1.60
2022-09-20T08:27:57.557Z,1.50
2022-09-20T08:31:10.514Z,1.40
2022-09-20T08:34:13.140Z,1.33
2022-09-20T08:37:14.530Z,1.10
2022-09-20T08:40:16.027Z,0.85
2022-09-20T08:43:22.362Z,1.38
2022-09-20T08:46:28.838Z,1.10
2022-09-20T08:49:30.670Z,1.52
2022-09-20T08:52:36.967Z,1.70
2022-09-20T08:55:40.314Z,1.35
2022-09-20T08:58:42.003Z,1.60
2022-09-20T09:01:43.455Z,1.70
2022-09-20T09:04:45.992Z,1.30
2022-09-20T09:07:47.420Z,1.40
2022-09-20T09:10:53.106Z,1.50
2022-09-20T09:14:02.832Z,1.40
2022-09-20T09:17:04.296Z,1.40
2022-09-20T09:20:18.192Z,1.50
2022-09-20T09:23:23.948Z,1.45
2022-09-20T09:26:25.468Z,1.50
2022-09-20T09:29:26.893Z,1.17
2022-09-20T09:32:31.703Z,1.67
2022-09-20T09:35:35.811Z,1.60
2022-09-20T09:38:42.401Z,1.40
2022-09-20T09:41:44.146Z,1.17
2022-09-20T09:44:45.575Z,1.35
2022-09-20T09:47:47.050Z,1.42
2022-09-20T09:51:11.526Z,1.33
2022-09-20T09:54:17.716Z,1.55
2022-09-20T09:57:19.075Z,1.48
2022-09-20T10:00:23.052Z,1.27
2022-09-20T10:03:57.071Z,1.15
2022-09-20T10:07:25.553Z,1.60
2022-09-20T10:10:26.989Z,1.13
2022-09-20T10:13:51.756Z,1.17
2022-09-20T10:17:33.158Z,1.30
2022-09-20T10:20:48.838Z,1.13
2022-09-20T10:24:04.341Z,0.80
2022-09-20T10:27:43.277Z,1.23
2022-09-20T10:30:50.548Z,1.05
2022-09-20T10:34:37.088Z,1.27
2022-09-20T10:38:00.325Z,1.27
2022-09-20T10:41:12.232Z,0.77
2022-09-20T10:44:49.020Z,0.80
2022-09-20T10:47:57.328Z,0.70
2022-09-20T10:51:10.876Z,0.70
2022-09-20T10:54:32.321Z,0.70
2022-09-20T10:58:05.280Z,1.00
2022-09-20T11:01:23.659Z,0.80
2022-09-20T11:04:53.854Z,0.80
2022-09-20T11:08:20.825Z,0.73
2022-09-20T11:11:34.361Z,0.85
2022-09-20T11:14:43.937Z,0.88
2022-09-20T11:18:13.434Z,0.80
2022-09-20T11:21:24.866Z,0.80
2022-09-20T11:24:32.106Z,0.80
2022-09-20T11:27:39.941Z,0.80
2022-09-20T11:31:04.227Z,0.73
2022-09-20T11:37:32.682Z,1.08
2022-09-20T11:40:38.317Z,0.80
2022-09-20T11:43:43.809Z,0.70
2022-09-20T11:46:55.345Z,0.88
2022-09-20T11:50:17.850Z,0.80
2022-09-20T11:53:27.793Z,0.70
2022-09-20T11:56:32.764Z,0.70
2022-09-20T11:59:55.807Z,1.20
2022-09-20T12:02:58.564Z,0.75
2022-09-20T12:06:02.583Z,0.80
2022-09-20T12:09:20.761Z,1.10
2022-09-20T12:12:32.581Z,1.10
2022-09-20T12:15:40.227Z,0.80
2022-09-20T12:18:53.895Z,0.80
2022-09-20T12:21:58.092Z,1.00
2022-09-20T12:25:44.984Z,1.00
2022-09-20T12:28:54.561Z,1.02
2022-09-20T12:32:00.112Z,1.40
2022-09-20T12:35:01.626Z,1.30
2022-09-20T12:38:21.307Z,0.98
2022-09-20T12:41:28.200Z,0.98
2022-09-20T12:44:32.791Z,0.80
2022-09-20T12:47:37.127Z,1.00
2022-09-20T12:50:38.793Z,1.00
2022-09-20T12:53:40.253Z,0.82
2022-09-20T12:56:42.115Z,0.80
2022-09-20T12:59:43.595Z,1.08
2022-09-20T13:02:51.233Z,1.00
2022-09-20T13:06:05.975Z,0.90
2022-09-20T13:09:09.612Z,0.90
2022-09-20T13:12:11.134Z,1.20
2022-09-20T13:15:18.994Z,0.90
2022-09-20T13:18:21.552Z,0.90
2022-09-20T13:21:23.364Z,1.27
2022-09-20T13:24:26.370Z,0.88
2022-09-20T13:27:33.122Z,0.80
2022-09-20T13:30:34.610Z,0.70
2022-09-20T13:33:35.993Z,0.80
2022-09-20T13:36:37.728Z,0.75
2022-09-20T13:39:39.256Z,1.00
2022-09-20T13:42:40.724Z,0.73
2022-09-20T13:45:47.409Z,0.60
2022-09-20T13:48:53.704Z,0.65
2022-09-20T13:51:55.118Z,0.90
2022-09-20T13:54:57.064Z,0.70
2022-09-20T13:58:08.409Z,0.57
2022-09-20T14:01:23.900Z,0.80
2022-09-20T14:04:28.372Z,0.68
2022-09-20T14:07:31.059Z,0.65
2022-09-20T14:10:38.178Z,0.80
2022-09-20T14:13:51.533Z,1.25
2022-09-20T14:16:56.205Z,0.60
2022-09-20T14:19:57.783Z,0.93
2022-09-20T14:22:59.935Z,0.77
2022-09-20T14:26:16.365Z,0.70
2022-09-20T14:29:51.463Z,0.93
2022-09-20T14:32:56.024Z,0.90
2022-09-20T14:35:57.692Z,0.70
2022-09-20T14:39:03.281Z,0.80
2022-09-20T14:42:28.734Z,0.57
2022-09-20T14:45:36.267Z,0.68
2022-09-20T14:48:39.874Z,0.60
2022-09-20T14:51:41.269Z,0.70
2022-09-20T14:54:42.680Z,0.60
2022-09-20T14:57:45.216Z,0.90
2022-09-20T15:00:57.405Z,0.77
2022-09-20T15:03:59.256Z,0.80
2022-09-20T15:07:03.447Z,0.80
2022-09-20T15:13:10.875Z,0.93
2022-09-20T15:16:18.579Z,0.80
2022-09-20T15:19:20.024Z,0.80
2022-09-20T15:22:21.433Z,0.75
2022-09-20T15:25:22.921Z,0.75
2022-09-20T15:28:24.351Z,0.80
2022-09-20T15:31:25.885Z,0.85
2022-09-20T15:34:27.317Z,0.90
2022-09-20T15:37:28.923Z,0.85
2022-09-20T15:40:30.568Z,0.80
2022-09-20T15:43:32.283Z,0.75
2022-09-20T15:46:34.396Z,0.60
2022-09-20T15:49:35.786Z,0.70
2022-09-20T15:52:39.329Z,0.75
2022-09-20T15:55:40.747Z,0.80
2022-09-20T15:58:46.789Z,0.75
2022-09-20T16:01:48.880Z,1.05
2022-09-20T16:04:50.316Z,0.60
2022-09-20T16:07:51.721Z,0.98
2022-09-20T16:11:00.093Z,0.90
2022-09-20T16:14:01.859Z,1.05
2022-09-20T16:17:03.299Z,0.73
2022-09-20T16:20:05.095Z,1.15
2022-09-20T16:23:06.515Z,0.90
2022-09-20T16:26:09.131Z,1.10
2022-09-20T16:29:10.607Z,1.20
2022-09-20T16:32:12.035Z,1.20
2022-09-20T16:35:13.458Z,1.45
2022-09-20T16:38:14.856Z,1.05
2022-09-20T16:41:16.322Z,1.10
2022-09-20T16:44:17.761Z,1.10
2022-09-20T16:47:19.165Z,1.00
2022-09-20T16:50:20.552Z,1.00
2022-09-20T16:53:21.964Z,1.08
2022-09-20T16:56:26.201Z,1.60
2022-09-20T16:59:27.863Z,1.10
2022-09-20T17:02:29.269Z,1.20
2022-09-20T17:05:30.673Z,1.02
2022-09-20T17:08:32.833Z,0.88
2022-09-20T17:11:39.380Z,1.65
2022-09-20T17:14:40.802Z,1.17
2022-09-20T17:17:42.227Z,1.30
2022-09-20T17:20:43.627Z,1.00
2022-09-20T17:23:50.793Z,1.20
2022-09-20T17:26:52.661Z,1.42
2022-09-20T17:29:54.092Z,1.20
2022-09-20T17:32:55.486Z,1.92
2022-09-20T17:35:57.173Z,1.60
2022-09-20T17:39:04.146Z,1.85
2022-09-20T17:42:06.342Z,1.85
2022-09-20T17:45:08.317Z,1.38
2022-09-20T17:48:09.719Z,1.38
2022-09-20T17:51:12.616Z,1.70
2022-09-20T17:54:14.693Z,2.60
2022-09-20T17:57:16.083Z,3.10
2022-09-20T18:00:17.492Z,2.40
2022-09-20T18:03:18.913Z,2.00
2022-09-20T18:06:23.615Z,2.00
2022-09-20T18:09:25.575Z,1.90
2022-09-20T18:12:26.977Z,1.90
2022-09-20T18:15:28.384Z,2.22
2022-09-20T18:18:31.169Z,2.10
2022-09-20T18:21:33.667Z,2.33
2022-09-20T18:24:35.092Z,2.00
2022-09-20T18:27:36.526Z,3.20
2022-09-20T18:30:37.909Z,2.42
2022-09-20T18:33:39.295Z,1.48
2022-09-20T18:36:41.287Z,1.70
2022-09-20T18:39:42.963Z,3.40
2022-09-20T18:42:46.805Z,2.47
2022-09-20T18:45:51.952Z,2.30
2022-09-20T18:48:58.566Z,1.92
2022-09-20T18:52:00.153Z,1.73
2022-09-20T18:55:01.627Z,1.77
2022-09-20T18:58:03.258Z,1.90
2022-09-20T19:01:29.043Z,1.92
2022-09-20T19:04:51.481Z,2.00
2022-09-20T19:08:12.888Z,2.40
2022-09-20T19:11:28.397Z,2.30
2022-09-20T19:14:44.144Z,2.53
2022-09-20T19:17:51.300Z,3.85
2022-09-20T19:21:11.124Z,3.63
2022-09-20T19:24:34.107Z,3.13
2022-09-20T19:27:35.831Z,3.35
2022-09-20T19:30:37.560Z,3.42
2022-09-20T19:33:39.403Z,2.80
2022-09-20T19:36:56.318Z,3.00
2022-09-20T19:40:07.177Z,3.00
2022-09-20T19:43:30.427Z,3.08
2022-09-20T19:46:42.614Z,3.47
2022-09-20T19:50:07.896Z,2.88
2022-09-20T19:53:09.572Z,3.20
2022-09-20T19:56:24.900Z,2.92
2022-09-20T19:59:27.872Z,3.00
2022-09-20T20:02:29.659Z,2.90
2022-09-20T20:05:31.446Z,3.20
2022-09-20T20:09:04.708Z,4.07
2022-09-20T20:12:17.320Z,3.58
2022-09-20T20:15:44.080Z,3.53
2022-09-20T20:18:54.333Z,3.72
2022-09-20T20:22:08.108Z,3.83
2022-09-20T20:25:35.156Z,3.85
2022-09-20T20:28:36.883Z,4.00
2022-09-20T20:31:38.384Z,3.80
2022-09-20T20:34:39.789Z,3.47
2022-09-20T20:37:41.180Z,2.92
2022-09-20T20:40:42.580Z,2.70
2022-09-20T20:43:45.447Z,2.78
2022-09-20T20:46:47.728Z,2.47
2022-09-20T20:49:52.583Z,3.03
2022-09-20T20:52:55.084Z,2.90
2022-09-20T20:56:01.474Z,3.00
2022-09-20T20:59:04.576Z,3.10
2022-09-20T21:02:08.079Z,3.47
2022-09-20T21:05:09.652Z,3.28
2022-09-20T21:08:11.092Z,3.13
2022-09-20T21:11:15.894Z,3.63
2022-09-20T21:14:17.414Z,3.42
2022-09-20T21:17:18.813Z,4.22
2022-09-20T21:20:20.746Z,4.22
2022-09-20T21:23:22.197Z,3.72
2022-09-20T21:26:25.987Z,3.70
2022-09-20T21:29:27.420Z,3.60
2022-09-20T21:32:28.885Z,3.50
2022-09-20T21:35:30.516Z,3.63
2022-09-20T21:38:31.977Z,3.70
2022-09-20T21:41:35.680Z,3.42
2022-09-20T21:44:37.057Z,4.25
2022-09-20T21:47:38.474Z,4.22
2022-09-20T21:50:39.873Z,4.25
2022-09-20T21:53:41.564Z,4.03
2022-09-20T21:56:42.964Z,3.50
2022-09-20T21:59:44.358Z,3.50
2022-09-20T22:02:45.744Z,3.90
2022-09-20T22:05:47.157Z,3.72
2022-09-20T22:08:54.089Z,4.50
2022-09-20T22:11:55.513Z,3.92
2022-09-20T22:14:56.920Z,4.07
2022-09-20T22:17:58.325Z,4.45
2022-09-20T22:21:08.687Z,4.40
2022-09-20T22:24:11.377Z,3.90
2022-09-20T22:27:13.098Z,3.90
2022-09-20T22:30:14.715Z,4.30
2022-09-20T22:33:16.266Z,3.97
2022-09-20T22:36:21.055Z,4.22
2022-09-20T22:39:22.595Z,4.50
2022-09-20T22:42:24.153Z,3.92
2022-09-20T22:45:25.682Z,4.22
2022-09-20T22:48:29.258Z,4.13
2022-09-20T22:51:32.181Z,3.70
2022-09-20T22:54:33.709Z,4.10
2022-09-20T22:57:35.979Z,4.18
2022-09-20T23:00:37.505Z,3.83
2022-09-20T23:03:40.535Z,4.15
2022-09-20T23:06:44.915Z,4.10
2022-09-20T23:09:46.442Z,4.22
2022-09-20T23:12:51.472Z,3.97
2022-09-20T23:15:54.104Z,4.13
2022-09-20T23:18:57.412Z,4.30
2022-09-20T23:21:58.955Z,4.03
2022-09-20T23:25:00.483Z,4.65
2022-09-20T23:28:02.075Z,4.50
2022-09-20T23:31:09.745Z,5.18
2022-09-20T23:34:11.378Z,5.00
2022-09-20T23:37:12.871Z,5.25
2022-09-20T23:40:14.585Z,5.13
2022-09-20T23:43:16.161Z,5.05
2022-09-20T23:46:19.372Z,5.28
2022-09-20T23:49:20.905Z,5.22
2022-09-20T23:52:22.473Z,4.70
2022-09-20T23:55:24.104Z,5.20
2022-09-20T23:58:25.884Z,5.18
